PWSweather.com
Personal Weather Stations
Station Observations

SaroSE

Lat: 57.5222, Lon: 11.947

Elevation: 35

Station Type: Davis VP2

http://www.lokaltvader.se/

High Low Average
Temperature 58.0°F14.4°C 47.6°F8.7°C 52.2°F11.2°C
Dew Point 52.9°F11.6°C 42.9°F6.1°C 48.1°F8.9°C
Winds 11.5 mph 18.5 kmh Calm Calm 5.0 mph E8.0 kmh E
Wind Gusts 15.0 mph24.1 kmh -- 8.0 mph12.9 kmh
Humidity 91% 82% 86%
Pressure 30.05 in1017.6 mb 29.84 in1010.5 mb -
Precipitation 0.00 in0.0 mm - -
Hour Temp Dew Point Humidity Winds Wind Gusts Pressure Precip Precip Rate Daily Precip Total
12:00 AM 47.9°F8.8°C 43.0°F6.1°C 83% 5.8 mph SE9.3 kmh SE 11.5 mph18.5 kmh 30.05 in1017.6 mb - 0.00 in0.0 mm 0.00 in0.0 mm
12:15 AM 48.2°F9.0°C 42.9°F6.1°C 82% 10.4 mph ESE16.7 kmh ESE 11.5 mph18.5 kmh 30.05 in1017.6 mb - 0.00 in0.0 mm 0.00 in0.0 mm
12:30 AM 48.1°F8.9°C 42.9°F6.1°C 82% 10.4 mph ESE16.7 kmh ESE 11.5 mph18.5 kmh 30.04 in1017.3 mb - 0.00 in0.0 mm 0.00 in0.0 mm
12:45 AM 48.0°F8.9°C 43.1°F6.2°C 83% 8.1 mph ESE13.0 kmh ESE 10.4 mph16.7 kmh 30.04 in1017.3 mb - 0.00 in0.0 mm 0.00 in0.0 mm
01:00 AM 48.2°F9.0°C 43.3°F6.3°C 83% 8.1 mph E13.0 kmh E 11.5 mph18.5 kmh 30.04 in1017.3 mb - 0.00 in0.0 mm 0.00 in0.0 mm
01:15 AM 48.3°F9.1°C 43.4°F6.3°C 83% 10.4 mph E16.7 kmh E 11.5 mph18.5 kmh 30.04 in1017.3 mb - 0.00 in0.0 mm 0.00 in0.0 mm
01:30 AM 48.2°F9.0°C 43.3°F6.3°C 83% 6.9 mph E11.1 kmh E 11.5 mph18.5 kmh 30.04 in1017.3 mb - 0.00 in0.0 mm 0.00 in0.0 mm
01:45 AM 48.1°F8.9°C 43.2°F6.2°C 83% 5.8 mph E9.3 kmh E 12.7 mph20.4 kmh 30.03 in1016.9 mb - 0.00 in0.0 mm 0.00 in0.0 mm
02:00 AM 47.9°F8.8°C 43.3°F6.3°C 84% 8.1 mph ESE13.0 kmh ESE 11.5 mph18.5 kmh 30.03 in1016.9 mb - 0.00 in0.0 mm 0.00 in0.0 mm
02:15 AM 47.9°F8.8°C 43.3°F6.3°C 84% 6.9 mph ESE11.1 kmh ESE 10.4 mph16.7 kmh 30.03 in1016.9 mb - 0.00 in0.0 mm 0.00 in0.0 mm
02:30 AM 47.9°F8.8°C 43.3°F6.3°C 84% 9.2 mph ESE14.8 kmh ESE 11.5 mph18.5 kmh 30.02 in1016.6 mb - 0.00 in0.0 mm 0.00 in0.0 mm
02:45 AM 47.9°F8.8°C 43.3°F6.3°C 84% Calm Calm 3.5 mph5.6 kmh 30.01 in1016.3 mb - 0.00 in0.0 mm 0.00 in0.0 mm
03:00 AM 47.9°F8.8°C 43.3°F6.3°C 84% 6.9 mph ESE11.1 kmh ESE 11.5 mph18.5 kmh 30.01 in1016.3 mb - 0.00 in0.0 mm 0.00 in0.0 mm
03:15 AM 47.8°F8.8°C 43.5°F6.4°C 85% 10.4 mph E16.7 kmh E 13.8 mph22.2 kmh 30.00 in1015.9 mb - 0.00 in0.0 mm 0.00 in0.0 mm
03:30 AM 47.7°F8.7°C 43.4°F6.3°C 85% 6.9 mph E11.1 kmh E 11.5 mph18.5 kmh 30.00 in1015.9 mb - 0.00 in0.0 mm 0.00 in0.0 mm
03:45 AM 47.6°F8.7°C 43.3°F6.3°C 85% 9.2 mph ESE14.8 kmh ESE 12.7 mph20.4 kmh 30.00 in1015.9 mb - 0.00 in0.0 mm 0.00 in0.0 mm
04:00 AM 47.6°F8.7°C 43.3°F6.3°C 85% 5.8 mph E9.3 kmh E 12.7 mph20.4 kmh 29.99 in1015.6 mb - 0.00 in0.0 mm 0.00 in0.0 mm
04:15 AM 47.6°F8.7°C 43.6°F6.4°C 86% 5.8 mph E9.3 kmh E 6.9 mph11.1 kmh 29.99 in1015.6 mb - 0.00 in0.0 mm 0.00 in0.0 mm
04:30 AM 47.6°F8.7°C 43.6°F6.4°C 86% 9.2 mph E14.8 kmh E 12.7 mph20.4 kmh 29.99 in1015.6 mb - 0.00 in0.0 mm 0.00 in0.0 mm
04:45 AM 47.6°F8.7°C 43.6°F6.4°C 86% 4.6 mph E7.4 kmh E 10.4 mph16.7 kmh 29.98 in1015.2 mb - 0.00 in0.0 mm 0.00 in0.0 mm
05:00 AM 47.6°F8.7°C 43.9°F6.6°C 87% 5.8 mph E9.3 kmh E 10.4 mph16.7 kmh 29.98 in1015.2 mb - 0.00 in0.0 mm 0.00 in0.0 mm
05:15 AM 47.7°F8.7°C 44.0°F6.7°C 87% 6.9 mph ESE11.1 kmh ESE 11.5 mph18.5 kmh 29.98 in1015.2 mb - 0.00 in0.0 mm 0.00 in0.0 mm
05:30 AM 47.8°F8.8°C 44.1°F6.7°C 87% 3.5 mph E5.6 kmh E 11.5 mph18.5 kmh 29.97 in1014.9 mb - 0.00 in0.0 mm 0.00 in0.0 mm
05:45 AM 47.8°F8.8°C 44.1°F6.7°C 87% 11.5 mph ESE18.5 kmh ESE 12.7 mph20.4 kmh 29.97 in1014.9 mb - 0.00 in0.0 mm 0.00 in0.0 mm
06:00 AM 47.9°F8.8°C 44.2°F6.8°C 87% 6.9 mph E11.1 kmh E 9.2 mph14.8 kmh 29.97 in1014.9 mb - 0.00 in0.0 mm 0.00 in0.0 mm
06:15 AM 47.9°F8.8°C 44.2°F6.8°C 87% 11.5 mph ESE18.5 kmh ESE 11.5 mph18.5 kmh 29.97 in1014.9 mb - 0.00 in0.0 mm 0.00 in0.0 mm
06:30 AM 47.9°F8.8°C 44.5°F6.9°C 88% 8.1 mph E13.0 kmh E 10.4 mph16.7 kmh 29.97 in1014.9 mb - 0.00 in0.0 mm 0.00 in0.0 mm
06:45 AM 47.9°F8.8°C 44.5°F6.9°C 88% 8.1 mph E13.0 kmh E 15.0 mph24.1 kmh 29.96 in1014.6 mb - 0.00 in0.0 mm 0.00 in0.0 mm
07:00 AM 48.0°F8.9°C 44.6°F7.0°C 88% 9.2 mph ESE14.8 kmh ESE 13.8 mph22.2 kmh 29.96 in1014.6 mb - 0.00 in0.0 mm 0.00 in0.0 mm
07:15 AM 48.0°F8.9°C 44.9°F7.2°C 89% 8.1 mph ESE13.0 kmh ESE 11.5 mph18.5 kmh 29.96 in1014.6 mb - 0.00 in0.0 mm 0.00 in0.0 mm
07:30 AM 48.0°F8.9°C 44.9°F7.2°C 89% 4.6 mph ESE7.4 kmh ESE 8.1 mph13.0 kmh 29.96 in1014.6 mb - 0.00 in0.0 mm 0.00 in0.0 mm
07:45 AM 48.1°F8.9°C 45.3°F7.4°C 90% 3.5 mph E5.6 kmh E 8.1 mph13.0 kmh 29.96 in1014.6 mb - 0.00 in0.0 mm 0.00 in0.0 mm
08:00 AM 48.3°F9.1°C 45.5°F7.5°C 90% 6.9 mph E11.1 kmh E 6.9 mph11.1 kmh 29.96 in1014.6 mb - 0.00 in0.0 mm 0.00 in0.0 mm
08:15 AM 48.4°F9.1°C 45.6°F7.6°C 90% 6.9 mph E11.1 kmh E 8.1 mph13.0 kmh 29.96 in1014.6 mb - 0.00 in0.0 mm 0.00 in0.0 mm
08:30 AM 48.6°F9.2°C 46.1°F7.8°C 91% 2.3 mph E3.7 kmh E 3.5 mph5.6 kmh 29.96 in1014.6 mb - 0.00 in0.0 mm 0.00 in0.0 mm
08:45 AM 48.8°F9.3°C 46.3°F7.9°C 91% 3.5 mph E5.6 kmh E 5.8 mph9.3 kmh 29.95 in1014.2 mb - 0.00 in0.0 mm 0.00 in0.0 mm
09:00 AM 49.1°F9.5°C 46.6°F8.1°C 91% 1.2 mph E1.9 kmh E 4.6 mph7.4 kmh 29.95 in1014.2 mb - 0.00 in0.0 mm 0.00 in0.0 mm
09:15 AM 49.2°F9.6°C 46.7°F8.2°C 91% 1.2 mph E1.9 kmh E 3.5 mph5.6 kmh 29.95 in1014.2 mb - 0.00 in0.0 mm 0.00 in0.0 mm
09:30 AM 49.4°F9.7°C 46.9°F8.3°C 91% 5.8 mph E9.3 kmh E 10.4 mph16.7 kmh 29.95 in1014.2 mb - 0.00 in0.0 mm 0.00 in0.0 mm
09:45 AM 49.5°F9.7°C 47.0°F8.3°C 91% 5.8 mph E9.3 kmh E 12.7 mph20.4 kmh 29.95 in1014.2 mb - 0.00 in0.0 mm 0.00 in0.0 mm
10:00 AM 49.9°F9.9°C 47.4°F8.6°C 91% 6.9 mph E11.1 kmh E 8.1 mph13.0 kmh 29.95 in1014.2 mb - 0.00 in0.0 mm 0.00 in0.0 mm
10:15 AM 50.2°F10.1°C 47.7°F8.7°C 91% 9.2 mph E14.8 kmh E 12.7 mph20.4 kmh 29.95 in1014.2 mb - 0.00 in0.0 mm 0.00 in0.0 mm
10:30 AM 50.6°F10.3°C 47.8°F8.8°C 90% 9.2 mph E14.8 kmh E 11.5 mph18.5 kmh 29.95 in1014.2 mb - 0.00 in0.0 mm 0.00 in0.0 mm
10:45 AM 51.0°F10.6°C 48.2°F9.0°C 90% 2.3 mph E3.7 kmh E 8.1 mph13.0 kmh 29.95 in1014.2 mb - 0.00 in0.0 mm 0.00 in0.0 mm
11:00 AM 51.5°F10.8°C 48.7°F9.3°C 90% 5.8 mph E9.3 kmh E 8.1 mph13.0 kmh 29.94 in1013.9 mb - 0.00 in0.0 mm 0.00 in0.0 mm
11:15 AM 52.1°F11.2°C 49.0°F9.4°C 89% 4.6 mph E7.4 kmh E 10.4 mph16.7 kmh 29.94 in1013.9 mb - 0.00 in0.0 mm 0.00 in0.0 mm
11:30 AM 52.5°F11.4°C 49.0°F9.4°C 88% 8.1 mph E13.0 kmh E 11.5 mph18.5 kmh 29.93 in1013.5 mb - 0.00 in0.0 mm 0.00 in0.0 mm
11:45 AM 52.7°F11.5°C 48.9°F9.4°C 87% 8.1 mph E13.0 kmh E 11.5 mph18.5 kmh 29.93 in1013.5 mb - 0.00 in0.0 mm 0.00 in0.0 mm
01:00 PM 54.2°F12.3°C 50.1°F10.1°C 86% 2.3 mph E3.7 kmh E 6.9 mph11.1 kmh 29.92 in1013.2 mb - 0.00 in0.0 mm 0.00 in0.0 mm
01:15 PM 54.6°F12.6°C 50.5°F10.3°C 86% 4.6 mph E7.4 kmh E 8.1 mph13.0 kmh 29.91 in1012.9 mb - 0.00 in0.0 mm 0.00 in0.0 mm
01:30 PM 55.1°F12.8°C 50.7°F10.4°C 85% 2.3 mph E3.7 kmh E 4.6 mph7.4 kmh 29.91 in1012.9 mb - 0.00 in0.0 mm 0.00 in0.0 mm
01:45 PM 55.5°F13.1°C 51.1°F10.6°C 85% 1.2 mph E1.9 kmh E 3.5 mph5.6 kmh 29.91 in1012.9 mb - 0.00 in0.0 mm 0.00 in0.0 mm
02:00 PM 55.9°F13.3°C 51.1°F10.6°C 84% 3.5 mph E5.6 kmh E 6.9 mph11.1 kmh 29.90 in1012.5 mb - 0.00 in0.0 mm 0.00 in0.0 mm
02:15 PM 56.4°F13.6°C 51.6°F10.9°C 84% Calm Calm -- 29.90 in1012.5 mb - 0.00 in0.0 mm 0.00 in0.0 mm
02:30 PM 57.0°F13.9°C 52.2°F11.2°C 84% 2.3 mph E3.7 kmh E 9.2 mph14.8 kmh 29.89 in1012.2 mb - 0.00 in0.0 mm 0.00 in0.0 mm
02:45 PM 57.4°F14.1°C 52.3°F11.3°C 83% 4.6 mph E7.4 kmh E 6.9 mph11.1 kmh 29.89 in1012.2 mb - 0.00 in0.0 mm 0.00 in0.0 mm
03:00 PM 57.8°F14.3°C 52.3°F11.3°C 82% 1.2 mph E1.9 kmh E 5.8 mph9.3 kmh 29.88 in1011.9 mb - 0.00 in0.0 mm 0.00 in0.0 mm
03:15 PM 58.0°F14.4°C 52.5°F11.4°C 82% Calm Calm -- 29.88 in1011.9 mb - 0.00 in0.0 mm 0.00 in0.0 mm
03:30 PM 57.9°F14.4°C 52.4°F11.3°C 82% 3.5 mph E5.6 kmh E 5.8 mph9.3 kmh 29.88 in1011.9 mb - 0.00 in0.0 mm 0.00 in0.0 mm
03:45 PM 57.7°F14.3°C 52.6°F11.4°C 83% 2.3 mph ESE3.7 kmh ESE 5.8 mph9.3 kmh 29.88 in1011.9 mb - 0.00 in0.0 mm 0.00 in0.0 mm
04:00 PM 57.6°F14.2°C 52.5°F11.4°C 83% 3.5 mph E5.6 kmh E 5.8 mph9.3 kmh 29.87 in1011.5 mb - 0.00 in0.0 mm 0.00 in0.0 mm
04:15 PM 57.5°F14.2°C 52.4°F11.3°C 83% Calm Calm -- 29.87 in1011.5 mb - 0.00 in0.0 mm 0.00 in0.0 mm
04:30 PM 57.5°F14.2°C 52.7°F11.5°C 84% Calm Calm -- 29.86 in1011.2 mb - 0.00 in0.0 mm 0.00 in0.0 mm
05:15 PM 57.0°F13.9°C 52.9°F11.6°C 86% 1.2 mph E1.9 kmh E 3.5 mph5.6 kmh 29.86 in1011.2 mb - 0.00 in0.0 mm 0.00 in0.0 mm
05:30 PM 56.9°F13.8°C 52.8°F11.6°C 86% 1.2 mph ENE1.9 kmh ENE 3.5 mph5.6 kmh 29.85 in1010.8 mb - 0.00 in0.0 mm 0.00 in0.0 mm
05:45 PM 56.9°F13.8°C 52.8°F11.6°C 86% 2.3 mph E3.7 kmh E 3.5 mph5.6 kmh 29.85 in1010.8 mb - 0.00 in0.0 mm 0.00 in0.0 mm
06:00 PM 56.9°F13.8°C 52.4°F11.3°C 85% 3.5 mph E5.6 kmh E 6.9 mph11.1 kmh 29.85 in1010.8 mb - 0.00 in0.0 mm 0.00 in0.0 mm
06:15 PM 56.8°F13.8°C 52.3°F11.3°C 85% 4.6 mph E7.4 kmh E 6.9 mph11.1 kmh 29.86 in1011.2 mb - 0.00 in0.0 mm 0.00 in0.0 mm
06:30 PM 56.7°F13.7°C 52.2°F11.2°C 85% 1.2 mph E1.9 kmh E 8.1 mph13.0 kmh 29.86 in1011.2 mb - 0.00 in0.0 mm 0.00 in0.0 mm
06:45 PM 56.7°F13.7°C 52.2°F11.2°C 85% 1.2 mph E1.9 kmh E 4.6 mph7.4 kmh 29.85 in1010.8 mb - 0.00 in0.0 mm 0.00 in0.0 mm
07:00 PM 56.6°F13.7°C 52.2°F11.2°C 85% 2.3 mph E3.7 kmh E 2.3 mph3.7 kmh 29.85 in1010.8 mb - 0.00 in0.0 mm 0.00 in0.0 mm
07:15 PM 56.6°F13.7°C 52.1°F11.2°C 85% 3.5 mph ENE5.6 kmh ENE 4.6 mph7.4 kmh 29.86 in1011.2 mb - 0.00 in0.0 mm 0.00 in0.0 mm
07:30 PM 56.6°F13.7°C 52.1°F11.2°C 85% 4.6 mph E7.4 kmh E 6.9 mph11.1 kmh 29.85 in1010.8 mb - 0.00 in0.0 mm 0.00 in0.0 mm
07:45 PM 56.6°F13.7°C 52.1°F11.2°C 85% 2.3 mph E3.7 kmh E 9.2 mph14.8 kmh 29.86 in1011.2 mb - 0.00 in0.0 mm 0.00 in0.0 mm
08:00 PM 56.5°F13.6°C 51.7°F10.9°C 84% 6.9 mph E11.1 kmh E 10.4 mph16.7 kmh 29.86 in1011.2 mb - 0.00 in0.0 mm 0.00 in0.0 mm
08:15 PM 56.3°F13.5°C 51.9°F11.1°C 85% 6.9 mph E11.1 kmh E 6.9 mph11.1 kmh 29.86 in1011.2 mb - 0.00 in0.0 mm 0.00 in0.0 mm
08:30 PM 56.2°F13.4°C 51.7°F10.9°C 85% 6.9 mph E11.1 kmh E 12.7 mph20.4 kmh 29.86 in1011.2 mb - 0.00 in0.0 mm 0.00 in0.0 mm
08:45 PM 56.1°F13.4°C 51.7°F10.9°C 85% 8.1 mph E13.0 kmh E 11.5 mph18.5 kmh 29.86 in1011.2 mb - 0.00 in0.0 mm 0.00 in0.0 mm
09:00 PM 56.0°F13.3°C 51.6°F10.9°C 85% 2.3 mph E3.7 kmh E 3.5 mph5.6 kmh 29.86 in1011.2 mb - 0.00 in0.0 mm 0.00 in0.0 mm
09:15 PM 55.8°F13.2°C 51.4°F10.8°C 85% 2.3 mph E3.7 kmh E 6.9 mph11.1 kmh 29.86 in1011.2 mb - 0.00 in0.0 mm 0.00 in0.0 mm
09:30 PM 55.7°F13.2°C 51.3°F10.7°C 85% 4.6 mph E7.4 kmh E 6.9 mph11.1 kmh 29.86 in1011.2 mb - 0.00 in0.0 mm 0.00 in0.0 mm
09:45 PM 55.5°F13.1°C 51.1°F10.6°C 85% 5.8 mph E9.3 kmh E 8.1 mph13.0 kmh 29.86 in1011.2 mb - 0.00 in0.0 mm 0.00 in0.0 mm
10:00 PM 55.3°F12.9°C 51.2°F10.7°C 86% 6.9 mph E11.1 kmh E 9.2 mph14.8 kmh 29.85 in1010.8 mb - 0.00 in0.0 mm 0.00 in0.0 mm
10:15 PM 55.1°F12.8°C 50.7°F10.4°C 85% 4.6 mph E7.4 kmh E 9.2 mph14.8 kmh 29.85 in1010.8 mb - 0.00 in0.0 mm 0.00 in0.0 mm
10:30 PM 54.9°F12.7°C 50.8°F10.4°C 86% 4.6 mph E7.4 kmh E 10.4 mph16.7 kmh 29.85 in1010.8 mb - 0.00 in0.0 mm 0.00 in0.0 mm
10:45 PM 54.7°F12.6°C 50.6°F10.3°C 86% 1.2 mph E1.9 kmh E 6.9 mph11.1 kmh 29.85 in1010.8 mb - 0.00 in0.0 mm 0.00 in0.0 mm
11:00 PM 54.4°F12.4°C 50.0°F10.0°C 85% 3.5 mph E5.6 kmh E 10.4 mph16.7 kmh 29.84 in1010.5 mb - 0.00 in0.0 mm 0.00 in0.0 mm
11:15 PM 54.3°F12.4°C 49.9°F9.9°C 85% 5.8 mph E9.3 kmh E 9.2 mph14.8 kmh 29.84 in1010.5 mb - 0.00 in0.0 mm 0.00 in0.0 mm
11:30 PM 54.2°F12.3°C 49.8°F9.9°C 85% 5.8 mph E9.3 kmh E 9.2 mph14.8 kmh 29.84 in1010.5 mb - 0.00 in0.0 mm 0.00 in0.0 mm
11:45 PM 54.0°F12.2°C 49.6°F9.8°C 85% 5.8 mph E9.3 kmh E 9.2 mph14.8 kmh 29.84 in1010.5 mb - 0.00 in0.0 mm 0.00 in0.0 mm